sensor_id;sensor_type;location;lat;lon;timestamp;P1;durP1;ratioP1;P2;durP2;ratioP2
59193;SDS011;44967;48.598;15.650;2022-12-10T00:01:02;4.15;;;3.10;;
59193;SDS011;44967;48.598;15.650;2022-12-10T00:03:29;3.65;;;3.03;;
59193;SDS011;44967;48.598;15.650;2022-12-10T00:05:55;5.57;;;3.50;;
59193;SDS011;44967;48.598;15.650;2022-12-10T00:08:25;4.35;;;3.67;;
59193;SDS011;44967;48.598;15.650;2022-12-10T00:10:50;3.38;;;3.08;;
59193;SDS011;44967;48.598;15.650;2022-12-10T00:13:16;4.25;;;3.20;;
59193;SDS011;44967;48.598;15.650;2022-12-10T00:15:42;4.88;;;3.17;;
59193;SDS011;44967;48.598;15.650;2022-12-10T00:18:08;5.43;;;3.67;;
59193;SDS011;44967;48.598;15.650;2022-12-10T00:20:35;10.00;;;3.88;;
59193;SDS011;44967;48.598;15.650;2022-12-10T00:23:02;6.85;;;3.25;;
59193;SDS011;44967;48.598;15.650;2022-12-10T00:25:28;4.05;;;2.92;;
59193;SDS011;44967;48.598;15.650;2022-12-10T00:27:53;4.78;;;3.42;;
59193;SDS011;44967;48.598;15.650;2022-12-10T00:30:19;4.15;;;2.78;;
59193;SDS011;44967;48.598;15.650;2022-12-10T00:32:45;5.20;;;3.30;;
59193;SDS011;44967;48.598;15.650;2022-12-10T00:35:10;5.13;;;3.80;;
59193;SDS011;44967;48.598;15.650;2022-12-10T00:37:36;4.53;;;3.20;;
59193;SDS011;44967;48.598;15.650;2022-12-10T00:40:02;5.38;;;3.50;;
59193;SDS011;44967;48.598;15.650;2022-12-10T00:42:28;4.45;;;3.05;;
59193;SDS011;44967;48.598;15.650;2022-12-10T00:44:54;3.75;;;3.35;;
59193;SDS011;44967;48.598;15.650;2022-12-10T00:47:20;5.88;;;3.90;;
59193;SDS011;44967;48.598;15.650;2022-12-10T00:49:45;5.70;;;4.05;;
59193;SDS011;44967;48.598;15.650;2022-12-10T00:52:11;5.95;;;4.00;;
59193;SDS011;44967;48.598;15.650;2022-12-10T00:54:36;5.43;;;4.35;;
59193;SDS011;44967;48.598;15.650;2022-12-10T00:57:02;7.38;;;5.20;;
59193;SDS011;44967;48.598;15.650;2022-12-10T00:59:28;6.20;;;4.47;;
59193;SDS011;44967;48.598;15.650;2022-12-10T01:01:54;7.15;;;4.75;;
59193;SDS011;44967;48.598;15.650;2022-12-10T01:04:19;7.53;;;5.00;;
59193;SDS011;44967;48.598;15.650;2022-12-10T01:06:47;7.53;;;4.97;;
59193;SDS011;44967;48.598;15.650;2022-12-10T01:09:15;8.00;;;5.35;;
59193;SDS011;44967;48.598;15.650;2022-12-10T01:11:43;10.25;;;5.93;;
59193;SDS011;44967;48.598;15.650;2022-12-10T01:14:11;8.23;;;4.90;;
59193;SDS011;44967;48.598;15.650;2022-12-10T01:16:39;6.90;;;4.88;;
59193;SDS011;44967;48.598;15.650;2022-12-10T01:19:05;6.57;;;4.53;;
59193;SDS011;44967;48.598;15.650;2022-12-10T01:21:32;7.97;;;5.00;;
59193;SDS011;44967;48.598;15.650;2022-12-10T01:23:57;9.95;;;5.95;;
59193;SDS011;44967;48.598;15.650;2022-12-10T01:26:25;10.65;;;7.03;;
59193;SDS011;44967;48.598;15.650;2022-12-10T01:28:52;14.02;;;6.43;;
59193;SDS011;44967;48.598;15.650;2022-12-10T01:31:23;11.48;;;6.63;;
59193;SDS011;44967;48.598;15.650;2022-12-10T01:33:51;14.23;;;7.20;;
59193;SDS011;44967;48.598;15.650;2022-12-10T01:36:21;13.65;;;7.25;;
59193;SDS011;44967;48.598;15.650;2022-12-10T01:38:49;13.05;;;6.75;;
59193;SDS011;44967;48.598;15.650;2022-12-10T01:41:17;11.45;;;7.07;;
59193;SDS011;44967;48.598;15.650;2022-12-10T01:46:33;10.02;;;7.10;;
59193;SDS011;44967;48.598;15.650;2022-12-10T01:49:50;13.20;;;8.02;;
59193;SDS011;44967;48.598;15.650;2022-12-10T01:54:28;15.43;;;8.43;;
59193;SDS011;44967;48.598;15.650;2022-12-10T01:56:58;14.13;;;8.23;;
59193;SDS011;44967;48.598;15.650;2022-12-10T01:59:26;13.15;;;7.88;;
59193;SDS011;44967;48.598;15.650;2022-12-10T02:07:22;15.15;;;8.65;;
59193;SDS011;44967;48.598;15.650;2022-12-10T02:12:49;15.80;;;8.23;;
59193;SDS011;44967;48.598;15.650;2022-12-10T02:15:27;15.82;;;8.20;;
59193;SDS011;44967;48.598;15.650;2022-12-10T02:17:59;16.92;;;9.18;;
59193;SDS011;44967;48.598;15.650;2022-12-10T02:23:25;15.23;;;8.68;;
59193;SDS011;44967;48.598;15.650;2022-12-10T02:25:57;15.35;;;7.78;;
59193;SDS011;44967;48.598;15.650;2022-12-10T02:31:05;17.55;;;9.20;;
59193;SDS011;44967;48.598;15.650;2022-12-10T02:33:32;18.90;;;9.55;;
59193;SDS011;44967;48.598;15.650;2022-12-10T02:36:02;19.67;;;9.90;;
59193;SDS011;44967;48.598;15.650;2022-12-10T02:38:30;19.52;;;10.65;;
59193;SDS011;44967;48.598;15.650;2022-12-10T02:41:08;16.48;;;8.82;;
59193;SDS011;44967;48.598;15.650;2022-12-10T02:43:41;17.70;;;9.07;;
59193;SDS011;44967;48.598;15.650;2022-12-10T02:46:10;18.60;;;9.50;;
59193;SDS011;44967;48.598;15.650;2022-12-10T02:48:37;16.33;;;9.25;;
59193;SDS011;44967;48.598;15.650;2022-12-10T02:51:05;16.60;;;10.23;;
59193;SDS011;44967;48.598;15.650;2022-12-10T02:53:30;20.33;;;10.10;;
59193;SDS011;44967;48.598;15.650;2022-12-10T03:01:39;20.48;;;10.05;;
59193;SDS011;44967;48.598;15.650;2022-12-10T03:07:17;23.40;;;10.90;;
59193;SDS011;44967;48.598;15.650;2022-12-10T03:12:22;16.35;;;9.60;;
59193;SDS011;44967;48.598;15.650;2022-12-10T03:14:54;24.60;;;12.40;;
59193;SDS011;44967;48.598;15.650;2022-12-10T03:17:24;22.80;;;11.43;;
59193;SDS011;44967;48.598;15.650;2022-12-10T03:19:54;24.17;;;12.05;;
59193;SDS011;44967;48.598;15.650;2022-12-10T03:22:23;26.38;;;13.00;;
59193;SDS011;44967;48.598;15.650;2022-12-10T03:24:49;26.02;;;11.90;;
59193;SDS011;44967;48.598;15.650;2022-12-10T03:27:16;30.17;;;13.32;;
59193;SDS011;44967;48.598;15.650;2022-12-10T03:29:50;29.42;;;13.88;;
59193;SDS011;44967;48.598;15.650;2022-12-10T03:32:17;27.05;;;13.73;;
59193;SDS011;44967;48.598;15.650;2022-12-10T03:34:45;27.17;;;14.07;;
59193;SDS011;44967;48.598;15.650;2022-12-10T03:37:12;28.50;;;13.50;;
59193;SDS011;44967;48.598;15.650;2022-12-10T03:39:38;29.38;;;14.02;;
59193;SDS011;44967;48.598;15.650;2022-12-10T03:42:06;30.73;;;14.48;;
59193;SDS011;44967;48.598;15.650;2022-12-10T03:44:33;27.55;;;13.77;;
59193;SDS011;44967;48.598;15.650;2022-12-10T03:47:00;35.30;;;15.90;;
59193;SDS011;44967;48.598;15.650;2022-12-10T03:49:27;28.05;;;14.00;;
59193;SDS011;44967;48.598;15.650;2022-12-10T03:51:53;27.52;;;13.25;;
59193;SDS011;44967;48.598;15.650;2022-12-10T03:54:18;26.23;;;13.50;;
59193;SDS011;44967;48.598;15.650;2022-12-10T03:56:44;29.15;;;12.88;;
59193;SDS011;44967;48.598;15.650;2022-12-10T03:59:10;31.17;;;13.73;;
59193;SDS011;44967;48.598;15.650;2022-12-10T04:01:36;32.22;;;14.05;;
59193;SDS011;44967;48.598;15.650;2022-12-10T04:04:05;31.40;;;13.30;;
59193;SDS011;44967;48.598;15.650;2022-12-10T04:06:31;32.20;;;13.38;;
59193;SDS011;44967;48.598;15.650;2022-12-10T04:08:57;26.60;;;13.30;;
59193;SDS011;44967;48.598;15.650;2022-12-10T04:11:23;29.75;;;12.75;;
59193;SDS011;44967;48.598;15.650;2022-12-10T04:13:50;29.48;;;12.82;;
59193;SDS011;44967;48.598;15.650;2022-12-10T04:16:34;31.13;;;14.15;;
59193;SDS011;44967;48.598;15.650;2022-12-10T04:19:04;29.13;;;13.30;;
59193;SDS011;44967;48.598;15.650;2022-12-10T04:21:32;31.30;;;12.73;;
59193;SDS011;44967;48.598;15.650;2022-12-10T04:27:06;32.45;;;14.10;;
59193;SDS011;44967;48.598;15.650;2022-12-10T04:29:38;29.73;;;13.52;;
59193;SDS011;44967;48.598;15.650;2022-12-10T04:32:05;29.00;;;13.93;;
59193;SDS011;44967;48.598;15.650;2022-12-10T04:34:31;30.50;;;13.15;;
59193;SDS011;44967;48.598;15.650;2022-12-10T04:36:58;32.05;;;13.50;;
59193;SDS011;44967;48.598;15.650;2022-12-10T04:39:24;30.75;;;13.85;;
59193;SDS011;44967;48.598;15.650;2022-12-10T04:41:50;34.40;;;13.80;;
59193;SDS011;44967;48.598;15.650;2022-12-10T04:44:16;33.85;;;14.75;;
59193;SDS011;44967;48.598;15.650;2022-12-10T04:46:42;30.17;;;13.23;;
59193;SDS011;44967;48.598;15.650;2022-12-10T04:49:08;28.88;;;13.77;;
59193;SDS011;44967;48.598;15.650;2022-12-10T04:51:34;31.85;;;13.88;;
59193;SDS011;44967;48.598;15.650;2022-12-10T04:54:00;29.60;;;13.25;;
59193;SDS011;44967;48.598;15.650;2022-12-10T04:56:26;28.10;;;11.23;;
59193;SDS011;44967;48.598;15.650;2022-12-10T04:58:54;28.75;;;12.93;;
59193;SDS011;44967;48.598;15.650;2022-12-10T05:01:21;32.30;;;14.15;;
59193;SDS011;44967;48.598;15.650;2022-12-10T05:03:47;31.48;;;13.02;;
59193;SDS011;44967;48.598;15.650;2022-12-10T05:06:14;29.60;;;12.27;;
59193;SDS011;44967;48.598;15.650;2022-12-10T05:08:41;32.22;;;14.40;;
59193;SDS011;44967;48.598;15.650;2022-12-10T05:11:08;25.27;;;12.13;;
59193;SDS011;44967;48.598;15.650;2022-12-10T05:13:36;33.40;;;13.73;;
59193;SDS011;44967;48.598;15.650;2022-12-10T05:16:02;25.38;;;11.60;;
59193;SDS011;44967;48.598;15.650;2022-12-10T05:18:29;27.58;;;12.32;;
59193;SDS011;44967;48.598;15.650;2022-12-10T05:20:57;26.00;;;12.30;;
59193;SDS011;44967;48.598;15.650;2022-12-10T05:23:24;31.85;;;13.25;;
59193;SDS011;44967;48.598;15.650;2022-12-10T05:25:59;26.50;;;11.75;;
59193;SDS011;44967;48.598;15.650;2022-12-10T05:28:25;26.10;;;12.25;;
59193;SDS011;44967;48.598;15.650;2022-12-10T05:30:51;25.33;;;12.38;;
59193;SDS011;44967;48.598;15.650;2022-12-10T05:33:17;29.73;;;12.48;;
59193;SDS011;44967;48.598;15.650;2022-12-10T05:35:43;26.85;;;11.90;;
59193;SDS011;44967;48.598;15.650;2022-12-10T05:38:09;24.40;;;12.18;;
59193;SDS011;44967;48.598;15.650;2022-12-10T05:40:36;22.45;;;10.95;;
59193;SDS011;44967;48.598;15.650;2022-12-10T05:43:02;27.98;;;11.98;;
59193;SDS011;44967;48.598;15.650;2022-12-10T05:45:28;22.63;;;10.98;;
59193;SDS011;44967;48.598;15.650;2022-12-10T05:47:54;28.40;;;11.15;;
59193;SDS011;44967;48.598;15.650;2022-12-10T05:50:19;22.83;;;11.18;;
59193;SDS011;44967;48.598;15.650;2022-12-10T05:52:45;26.23;;;12.18;;
59193;SDS011;44967;48.598;15.650;2022-12-10T05:55:10;24.88;;;13.05;;
59193;SDS011;44967;48.598;15.650;2022-12-10T05:57:37;24.95;;;12.25;;
59193;SDS011;44967;48.598;15.650;2022-12-10T06:00:05;21.92;;;11.30;;
59193;SDS011;44967;48.598;15.650;2022-12-10T06:02:34;26.17;;;12.23;;
59193;SDS011;44967;48.598;15.650;2022-12-10T06:05:00;27.05;;;11.68;;
59193;SDS011;44967;48.598;15.650;2022-12-10T06:07:25;24.20;;;11.80;;
59193;SDS011;44967;48.598;15.650;2022-12-10T06:09:52;23.33;;;10.40;;
59193;SDS011;44967;48.598;15.650;2022-12-10T06:12:17;24.80;;;11.60;;
59193;SDS011;44967;48.598;15.650;2022-12-10T06:14:43;23.20;;;10.45;;
59193;SDS011;44967;48.598;15.650;2022-12-10T06:17:08;24.05;;;11.38;;
59193;SDS011;44967;48.598;15.650;2022-12-10T06:19:34;24.67;;;11.10;;
59193;SDS011;44967;48.598;15.650;2022-12-10T06:22:00;24.65;;;10.45;;
59193;SDS011;44967;48.598;15.650;2022-12-10T06:24:26;26.13;;;12.52;;
59193;SDS011;44967;48.598;15.650;2022-12-10T06:26:51;22.23;;;10.90;;
59193;SDS011;44967;48.598;15.650;2022-12-10T06:29:17;27.80;;;12.82;;
59193;SDS011;44967;48.598;15.650;2022-12-10T06:31:43;23.67;;;10.85;;
59193;SDS011;44967;48.598;15.650;2022-12-10T06:34:09;25.73;;;10.93;;
59193;SDS011;44967;48.598;15.650;2022-12-10T06:36:35;25.70;;;11.45;;
59193;SDS011;44967;48.598;15.650;2022-12-10T06:39:00;27.13;;;12.30;;
59193;SDS011;44967;48.598;15.650;2022-12-10T06:41:26;26.08;;;11.55;;
59193;SDS011;44967;48.598;15.650;2022-12-10T06:43:52;25.55;;;11.52;;
59193;SDS011;44967;48.598;15.650;2022-12-10T06:46:18;31.02;;;13.13;;
59193;SDS011;44967;48.598;15.650;2022-12-10T06:48:46;30.65;;;13.27;;
59193;SDS011;44967;48.598;15.650;2022-12-10T06:51:12;27.48;;;12.88;;
59193;SDS011;44967;48.598;15.650;2022-12-10T06:53:39;27.92;;;12.82;;
59193;SDS011;44967;48.598;15.650;2022-12-10T06:56:06;33.63;;;13.73;;
59193;SDS011;44967;48.598;15.650;2022-12-10T06:58:33;32.45;;;13.73;;
59193;SDS011;44967;48.598;15.650;2022-12-10T07:01:06;27.27;;;13.75;;
59193;SDS011;44967;48.598;15.650;2022-12-10T07:03:34;28.77;;;13.15;;
59193;SDS011;44967;48.598;15.650;2022-12-10T07:06:00;25.63;;;12.00;;
59193;SDS011;44967;48.598;15.650;2022-12-10T07:08:26;26.67;;;12.43;;
59193;SDS011;44967;48.598;15.650;2022-12-10T07:10:52;28.70;;;12.02;;
59193;SDS011;44967;48.598;15.650;2022-12-10T07:13:18;26.08;;;11.43;;
59193;SDS011;44967;48.598;15.650;2022-12-10T07:15:43;29.50;;;12.10;;
59193;SDS011;44967;48.598;15.650;2022-12-10T07:18:09;26.17;;;12.43;;
59193;SDS011;44967;48.598;15.650;2022-12-10T07:20:34;27.23;;;11.63;;
59193;SDS011;44967;48.598;15.650;2022-12-10T07:23:00;25.25;;;12.05;;
59193;SDS011;44967;48.598;15.650;2022-12-10T07:25:25;28.05;;;12.88;;
59193;SDS011;44967;48.598;15.650;2022-12-10T07:27:51;26.15;;;12.13;;
59193;SDS011;44967;48.598;15.650;2022-12-10T07:30:16;25.05;;;11.75;;
59193;SDS011;44967;48.598;15.650;2022-12-10T07:32:42;23.38;;;11.73;;
59193;SDS011;44967;48.598;15.650;2022-12-10T07:35:08;28.08;;;11.73;;
59193;SDS011;44967;48.598;15.650;2022-12-10T07:37:33;25.13;;;11.93;;
59193;SDS011;44967;48.598;15.650;2022-12-10T07:39:59;32.97;;;13.38;;
59193;SDS011;44967;48.598;15.650;2022-12-10T07:42:25;28.60;;;12.15;;
59193;SDS011;44967;48.598;15.650;2022-12-10T07:44:51;29.08;;;12.32;;
59193;SDS011;44967;48.598;15.650;2022-12-10T07:47:16;33.92;;;14.30;;
59193;SDS011;44967;48.598;15.650;2022-12-10T07:49:42;31.80;;;13.27;;
59193;SDS011;44967;48.598;15.650;2022-12-10T07:52:08;29.80;;;12.30;;
59193;SDS011;44967;48.598;15.650;2022-12-10T07:54:37;30.67;;;12.85;;
59193;SDS011;44967;48.598;15.650;2022-12-10T07:57:02;29.67;;;13.13;;
59193;SDS011;44967;48.598;15.650;2022-12-10T07:59:28;32.17;;;13.57;;
59193;SDS011;44967;48.598;15.650;2022-12-10T08:01:54;27.45;;;12.10;;
59193;SDS011;44967;48.598;15.650;2022-12-10T08:04:20;26.33;;;12.43;;
59193;SDS011;44967;48.598;15.650;2022-12-10T08:06:45;32.28;;;13.45;;
59193;SDS011;44967;48.598;15.650;2022-12-10T08:09:12;28.75;;;12.70;;
59193;SDS011;44967;48.598;15.650;2022-12-10T08:11:38;32.83;;;14.05;;
59193;SDS011;44967;48.598;15.650;2022-12-10T08:14:04;23.30;;;11.27;;
59193;SDS011;44967;48.598;15.650;2022-12-10T08:16:30;27.67;;;11.68;;
59193;SDS011;44967;48.598;15.650;2022-12-10T08:18:59;23.77;;;11.60;;
59193;SDS011;44967;48.598;15.650;2022-12-10T08:21:27;28.52;;;13.07;;
59193;SDS011;44967;48.598;15.650;2022-12-10T08:23:54;29.83;;;12.55;;
59193;SDS011;44967;48.598;15.650;2022-12-10T08:26:21;23.67;;;11.45;;
59193;SDS011;44967;48.598;15.650;2022-12-10T08:28:49;23.98;;;12.00;;
59193;SDS011;44967;48.598;15.650;2022-12-10T08:31:16;23.65;;;11.77;;
59193;SDS011;44967;48.598;15.650;2022-12-10T08:33:43;25.38;;;11.63;;
59193;SDS011;44967;48.598;15.650;2022-12-10T08:36:10;25.40;;;12.13;;
59193;SDS011;44967;48.598;15.650;2022-12-10T08:38:37;24.63;;;12.18;;
59193;SDS011;44967;48.598;15.650;2022-12-10T08:41:06;21.98;;;10.88;;
59193;SDS011;44967;48.598;15.650;2022-12-10T08:43:43;23.75;;;11.32;;
59193;SDS011;44967;48.598;15.650;2022-12-10T08:46:10;23.75;;;11.50;;
59193;SDS011;44967;48.598;15.650;2022-12-10T08:48:37;31.40;;;12.25;;
59193;SDS011;44967;48.598;15.650;2022-12-10T08:51:04;21.67;;;11.35;;
59193;SDS011;44967;48.598;15.650;2022-12-10T08:53:31;27.17;;;11.43;;
59193;SDS011;44967;48.598;15.650;2022-12-10T08:55:57;26.40;;;12.25;;
59193;SDS011;44967;48.598;15.650;2022-12-10T08:58:23;31.55;;;12.23;;
59193;SDS011;44967;48.598;15.650;2022-12-10T09:00:49;27.20;;;12.30;;
59193;SDS011;44967;48.598;15.650;2022-12-10T09:03:15;26.58;;;11.63;;
59193;SDS011;44967;48.598;15.650;2022-12-10T09:05:41;24.63;;;11.88;;
59193;SDS011;44967;48.598;15.650;2022-12-10T09:08:08;33.58;;;12.02;;
59193;SDS011;44967;48.598;15.650;2022-12-10T09:10:35;27.92;;;12.13;;
59193;SDS011;44967;48.598;15.650;2022-12-10T09:13:01;28.75;;;11.70;;
59193;SDS011;44967;48.598;15.650;2022-12-10T09:15:27;33.78;;;13.18;;
59193;SDS011;44967;48.598;15.650;2022-12-10T09:17:53;30.30;;;12.75;;
59193;SDS011;44967;48.598;15.650;2022-12-10T09:20:18;30.48;;;13.35;;
59193;SDS011;44967;48.598;15.650;2022-12-10T09:22:44;28.20;;;13.65;;
59193;SDS011;44967;48.598;15.650;2022-12-10T09:25:11;29.83;;;12.95;;
59193;SDS011;44967;48.598;15.650;2022-12-10T09:27:40;28.23;;;12.63;;
59193;SDS011;44967;48.598;15.650;2022-12-10T09:30:07;28.13;;;13.25;;
59193;SDS011;44967;48.598;15.650;2022-12-10T09:32:33;28.23;;;13.27;;
59193;SDS011;44967;48.598;15.650;2022-12-10T09:34:59;28.08;;;12.80;;
59193;SDS011;44967;48.598;15.650;2022-12-10T09:37:25;36.20;;;16.25;;
59193;SDS011;44967;48.598;15.650;2022-12-10T09:39:50;34.00;;;15.18;;
59193;SDS011;44967;48.598;15.650;2022-12-10T09:42:26;32.95;;;15.48;;
59193;SDS011;44967;48.598;15.650;2022-12-10T09:48:21;30.30;;;13.20;;
59193;SDS011;44967;48.598;15.650;2022-12-10T09:50:57;32.53;;;14.63;;
59193;SDS011;44967;48.598;15.650;2022-12-10T09:53:29;32.35;;;14.07;;
59193;SDS011;44967;48.598;15.650;2022-12-10T09:55:56;29.40;;;14.15;;
59193;SDS011;44967;48.598;15.650;2022-12-10T09:58:24;30.08;;;13.70;;
59193;SDS011;44967;48.598;15.650;2022-12-10T10:01:02;33.85;;;14.45;;
59193;SDS011;44967;48.598;15.650;2022-12-10T10:03:31;32.20;;;14.07;;
59193;SDS011;44967;48.598;15.650;2022-12-10T10:06:02;34.97;;;14.68;;
59193;SDS011;44967;48.598;15.650;2022-12-10T10:08:32;32.83;;;14.55;;
59193;SDS011;44967;48.598;15.650;2022-12-10T10:11:02;31.17;;;14.35;;
59193;SDS011;44967;48.598;15.650;2022-12-10T10:13:36;33.53;;;15.48;;
59193;SDS011;44967;48.598;15.650;2022-12-10T10:19:04;34.40;;;15.30;;
59193;SDS011;44967;48.598;15.650;2022-12-10T10:21:41;32.05;;;14.80;;
59193;SDS011;44967;48.598;15.650;2022-12-10T10:24:12;32.38;;;14.60;;
59193;SDS011;44967;48.598;15.650;2022-12-10T10:26:40;29.98;;;12.85;;
59193;SDS011;44967;48.598;15.650;2022-12-10T10:29:06;37.13;;;15.43;;
59193;SDS011;44967;48.598;15.650;2022-12-10T10:31:35;31.17;;;14.65;;
59193;SDS011;44967;48.598;15.650;2022-12-10T10:34:05;32.88;;;14.60;;
59193;SDS011;44967;48.598;15.650;2022-12-10T10:36:38;34.80;;;16.35;;
59193;SDS011;44967;48.598;15.650;2022-12-10T10:41:38;33.72;;;14.35;;
59193;SDS011;44967;48.598;15.650;2022-12-10T10:44:07;31.75;;;13.60;;
59193;SDS011;44967;48.598;15.650;2022-12-10T10:46:40;38.20;;;15.75;;
59193;SDS011;44967;48.598;15.650;2022-12-10T10:49:24;34.35;;;15.68;;
59193;SDS011;44967;48.598;15.650;2022-12-10T10:51:51;32.70;;;15.05;;
59193;SDS011;44967;48.598;15.650;2022-12-10T10:54:33;31.95;;;15.52;;
59193;SDS011;44967;48.598;15.650;2022-12-10T10:57:04;29.95;;;14.18;;
59193;SDS011;44967;48.598;15.650;2022-12-10T10:59:37;32.97;;;14.38;;
59193;SDS011;44967;48.598;15.650;2022-12-10T11:02:08;33.15;;;14.23;;
59193;SDS011;44967;48.598;15.650;2022-12-10T11:04:52;36.38;;;15.52;;
59193;SDS011;44967;48.598;15.650;2022-12-10T11:07:21;33.70;;;14.20;;
59193;SDS011;44967;48.598;15.650;2022-12-10T11:09:51;31.27;;;14.30;;
59193;SDS011;44967;48.598;15.650;2022-12-10T11:12:28;29.80;;;14.30;;
59193;SDS011;44967;48.598;15.650;2022-12-10T11:15:00;31.77;;;13.52;;
59193;SDS011;44967;48.598;15.650;2022-12-10T11:17:27;29.52;;;13.00;;
59193;SDS011;44967;48.598;15.650;2022-12-10T11:20:15;29.17;;;13.80;;
59193;SDS011;44967;48.598;15.650;2022-12-10T11:22:48;28.10;;;13.40;;
59193;SDS011;44967;48.598;15.650;2022-12-10T11:25:23;26.08;;;11.68;;
59193;SDS011;44967;48.598;15.650;2022-12-10T11:42:12;23.15;;;12.73;;
59193;SDS011;44967;48.598;15.650;2022-12-10T11:47:46;20.17;;;10.88;;
59193;SDS011;44967;48.598;15.650;2022-12-10T11:50:18;23.00;;;11.45;;
59193;SDS011;44967;48.598;15.650;2022-12-10T11:58:35;19.63;;;9.43;;
59193;SDS011;44967;48.598;15.650;2022-12-10T12:09:15;21.75;;;11.95;;
59193;SDS011;44967;48.598;15.650;2022-12-10T12:14:24;21.88;;;10.63;;
59193;SDS011;44967;48.598;15.650;2022-12-10T12:19:58;22.73;;;10.93;;
59193;SDS011;44967;48.598;15.650;2022-12-10T12:22:29;22.75;;;10.75;;
59193;SDS011;44967;48.598;15.650;2022-12-10T12:25:00;23.45;;;10.73;;
59193;SDS011;44967;48.598;15.650;2022-12-10T12:27:33;19.85;;;10.70;;
59193;SDS011;44967;48.598;15.650;2022-12-10T12:30:12;24.52;;;12.00;;
59193;SDS011;44967;48.598;15.650;2022-12-10T12:35:42;19.42;;;10.07;;
59193;SDS011;44967;48.598;15.650;2022-12-10T12:38:28;20.23;;;9.95;;
59193;SDS011;44967;48.598;15.650;2022-12-10T12:41:08;19.92;;;10.07;;
59193;SDS011;44967;48.598;15.650;2022-12-10T12:46:02;18.98;;;10.10;;
59193;SDS011;44967;48.598;15.650;2022-12-10T12:51:40;20.65;;;10.35;;
59193;SDS011;44967;48.598;15.650;2022-12-10T12:54:11;20.48;;;9.50;;
59193;SDS011;44967;48.598;15.650;2022-12-10T13:05:16;19.45;;;9.70;;
59193;SDS011;44967;48.598;15.650;2022-12-10T13:11:15;21.17;;;9.05;;
59193;SDS011;44967;48.598;15.650;2022-12-10T13:27:05;21.02;;;11.15;;
59193;SDS011;44967;48.598;15.650;2022-12-10T13:32:22;21.75;;;11.20;;
59193;SDS011;44967;48.598;15.650;2022-12-10T13:43:26;21.35;;;12.07;;
59193;SDS011;44967;48.598;15.650;2022-12-10T13:46:21;28.08;;;13.50;;
59193;SDS011;44967;48.598;15.650;2022-12-10T13:48:58;27.45;;;13.68;;
59193;SDS011;44967;48.598;15.650;2022-12-10T13:57:08;30.45;;;13.35;;
59193;SDS011;44967;48.598;15.650;2022-12-10T14:07:59;31.08;;;15.63;;
59193;SDS011;44967;48.598;15.650;2022-12-10T14:10:31;30.75;;;15.25;;
59193;SDS011;44967;48.598;15.650;2022-12-10T14:13:01;26.52;;;13.85;;
59193;SDS011;44967;48.598;15.650;2022-12-10T14:15:28;29.13;;;14.18;;
59193;SDS011;44967;48.598;15.650;2022-12-10T14:18:06;26.70;;;13.50;;
59193;SDS011;44967;48.598;15.650;2022-12-10T14:20:45;29.23;;;14.63;;
59193;SDS011;44967;48.598;15.650;2022-12-10T14:26:12;36.88;;;15.35;;
59193;SDS011;44967;48.598;15.650;2022-12-10T14:28:41;32.45;;;14.38;;
59193;SDS011;44967;48.598;15.650;2022-12-10T14:31:18;30.27;;;13.80;;
59193;SDS011;44967;48.598;15.650;2022-12-10T14:33:50;30.95;;;14.25;;
59193;SDS011;44967;48.598;15.650;2022-12-10T14:36:28;31.23;;;13.25;;
59193;SDS011;44967;48.598;15.650;2022-12-10T14:38:56;32.15;;;14.63;;
59193;SDS011;44967;48.598;15.650;2022-12-10T14:41:23;30.35;;;14.43;;
59193;SDS011;44967;48.598;15.650;2022-12-10T14:43:49;27.13;;;13.55;;
59193;SDS011;44967;48.598;15.650;2022-12-10T14:46:20;29.98;;;14.50;;
59193;SDS011;44967;48.598;15.650;2022-12-10T14:48:52;27.38;;;13.70;;
59193;SDS011;44967;48.598;15.650;2022-12-10T14:51:21;30.73;;;14.20;;
59193;SDS011;44967;48.598;15.650;2022-12-10T14:53:49;30.27;;;14.13;;
59193;SDS011;44967;48.598;15.650;2022-12-10T14:56:18;30.05;;;14.60;;
59193;SDS011;44967;48.598;15.650;2022-12-10T14:58:54;26.13;;;13.20;;
59193;SDS011;44967;48.598;15.650;2022-12-10T15:01:31;32.00;;;13.77;;
59193;SDS011;44967;48.598;15.650;2022-12-10T15:04:17;31.85;;;14.60;;
59193;SDS011;44967;48.598;15.650;2022-12-10T15:06:44;29.10;;;15.25;;
59193;SDS011;44967;48.598;15.650;2022-12-10T15:09:18;28.52;;;14.50;;
59193;SDS011;44967;48.598;15.650;2022-12-10T15:11:51;29.58;;;14.77;;
59193;SDS011;44967;48.598;15.650;2022-12-10T15:14:19;33.22;;;16.52;;
59193;SDS011;44967;48.598;15.650;2022-12-10T15:16:46;29.95;;;14.70;;
59193;SDS011;44967;48.598;15.650;2022-12-10T15:19:20;29.65;;;13.73;;
59193;SDS011;44967;48.598;15.650;2022-12-10T15:21:56;33.97;;;14.85;;
59193;SDS011;44967;48.598;15.650;2022-12-10T15:24:26;31.80;;;13.75;;
59193;SDS011;44967;48.598;15.650;2022-12-10T15:26:53;33.40;;;14.98;;
59193;SDS011;44967;48.598;15.650;2022-12-10T15:31:55;32.95;;;14.57;;
59193;SDS011;44967;48.598;15.650;2022-12-10T15:34:25;29.95;;;14.20;;
59193;SDS011;44967;48.598;15.650;2022-12-10T15:36:54;30.90;;;15.43;;
59193;SDS011;44967;48.598;15.650;2022-12-10T15:39:27;28.63;;;15.25;;
59193;SDS011;44967;48.598;15.650;2022-12-10T15:41:59;36.42;;;17.33;;
59193;SDS011;44967;48.598;15.650;2022-12-10T15:49:34;32.42;;;16.25;;
59193;SDS011;44967;48.598;15.650;2022-12-10T15:52:00;35.40;;;16.42;;
59193;SDS011;44967;48.598;15.650;2022-12-10T15:56:58;36.67;;;16.10;;
59193;SDS011;44967;48.598;15.650;2022-12-10T15:59:24;34.85;;;16.10;;
59193;SDS011;44967;48.598;15.650;2022-12-10T16:01:50;34.40;;;15.75;;
59193;SDS011;44967;48.598;15.650;2022-12-10T16:04:18;35.65;;;16.40;;
59193;SDS011;44967;48.598;15.650;2022-12-10T16:06:44;35.50;;;17.00;;
59193;SDS011;44967;48.598;15.650;2022-12-10T16:09:10;37.67;;;16.88;;
59193;SDS011;44967;48.598;15.650;2022-12-10T16:11:36;37.35;;;17.20;;
59193;SDS011;44967;48.598;15.650;2022-12-10T16:14:02;37.88;;;17.67;;
59193;SDS011;44967;48.598;15.650;2022-12-10T16:16:28;39.33;;;17.27;;
59193;SDS011;44967;48.598;15.650;2022-12-10T16:18:56;39.33;;;17.83;;
59193;SDS011;44967;48.598;15.650;2022-12-10T16:21:22;41.45;;;17.38;;
59193;SDS011;44967;48.598;15.650;2022-12-10T16:23:47;39.13;;;16.50;;
59193;SDS011;44967;48.598;15.650;2022-12-10T16:26:18;36.10;;;16.95;;
59193;SDS011;44967;48.598;15.650;2022-12-10T16:28:46;34.65;;;17.30;;
59193;SDS011;44967;48.598;15.650;2022-12-10T16:31:17;34.88;;;17.25;;
59193;SDS011;44967;48.598;15.650;2022-12-10T16:33:45;43.40;;;18.95;;
59193;SDS011;44967;48.598;15.650;2022-12-10T16:36:13;37.15;;;16.35;;
59193;SDS011;44967;48.598;15.650;2022-12-10T16:38:39;37.50;;;17.52;;
59193;SDS011;44967;48.598;15.650;2022-12-10T16:41:15;41.33;;;18.95;;
59193;SDS011;44967;48.598;15.650;2022-12-10T16:43:45;32.88;;;16.40;;
59193;SDS011;44967;48.598;15.650;2022-12-10T16:46:12;41.78;;;16.63;;
59193;SDS011;44967;48.598;15.650;2022-12-10T16:48:38;39.05;;;17.35;;
59193;SDS011;44967;48.598;15.650;2022-12-10T16:51:06;41.40;;;18.88;;
59193;SDS011;44967;48.598;15.650;2022-12-10T16:53:39;39.85;;;17.58;;